createdAt,value
2018-07-25T00:02:08.169Z,4.03
2018-07-25T00:04:36.546Z,3.90
2018-07-25T00:07:04.973Z,3.60
2018-07-25T00:09:33.509Z,3.90
2018-07-25T00:12:01.887Z,4.33
2018-07-25T00:14:30.347Z,3.73
2018-07-25T00:16:58.766Z,4.20
2018-07-25T00:19:27.482Z,4.13
2018-07-25T00:21:55.966Z,4.90
2018-07-25T00:24:24.456Z,4.57
2018-07-25T00:26:52.841Z,4.53
2018-07-25T00:29:21.384Z,4.87
2018-07-25T00:31:49.878Z,4.87
2018-07-25T00:34:18.510Z,5.33
2018-07-25T00:36:46.920Z,5.47
2018-07-25T00:39:15.373Z,5.57
2018-07-25T00:41:43.988Z,6.17
2018-07-25T00:44:12.406Z,6.37
2018-07-25T00:46:40.799Z,6.23
2018-07-25T00:49:09.233Z,6.33
2018-07-25T00:51:37.813Z,5.70
2018-07-25T00:54:06.206Z,6.03
2018-07-25T00:56:34.951Z,7.00
2018-07-25T00:59:03.737Z,6.33
2018-07-25T01:01:32.634Z,7.00
2018-07-25T01:04:01.133Z,6.40
2018-07-25T01:06:29.797Z,6.47
2018-07-25T01:08:58.680Z,6.77
2018-07-25T01:11:27.082Z,7.23
2018-07-25T01:13:55.775Z,6.57
2018-07-25T01:16:24.365Z,7.17
2018-07-25T01:18:52.796Z,6.60
2018-07-25T01:21:21.386Z,7.40
2018-07-25T01:23:50.115Z,8.33
2018-07-25T01:26:18.710Z,7.63
2018-07-25T01:28:50.220Z,7.80
2018-07-25T01:31:19.017Z,8.07
2018-07-25T01:33:47.685Z,8.73
2018-07-25T01:36:16.328Z,8.23
2018-07-25T01:38:44.834Z,8.33
2018-07-25T01:41:13.563Z,8.90
2018-07-25T01:43:41.966Z,8.20
2018-07-25T01:46:10.401Z,8.80
2018-07-25T01:48:38.831Z,9.23
2018-07-25T01:51:07.635Z,8.50
2018-07-25T01:53:36.044Z,8.00
2018-07-25T01:56:04.460Z,8.77
2018-07-25T01:58:33.261Z,8.87
2018-07-25T02:01:01.664Z,8.40
2018-07-25T02:03:30.308Z,8.33
2018-07-25T02:05:58.700Z,8.10
2018-07-25T02:08:27.169Z,7.10
2018-07-25T02:10:55.745Z,7.57
2018-07-25T02:13:24.524Z,7.60
2018-07-25T02:15:53.000Z,7.23
2018-07-25T02:18:21.884Z,7.20
2018-07-25T02:20:50.461Z,6.97
2018-07-25T02:23:18.863Z,7.43
2018-07-25T02:25:47.352Z,7.13
2018-07-25T02:28:15.968Z,6.97
2018-07-25T02:30:44.505Z,6.90
2018-07-25T02:33:12.916Z,6.37
2018-07-25T02:35:41.470Z,6.77
2018-07-25T02:38:10.706Z,6.23
2018-07-25T02:40:39.088Z,5.97
2018-07-25T02:43:07.545Z,6.23
2018-07-25T02:45:41.655Z,5.63
2018-07-25T02:48:10.195Z,6.13
2018-07-25T02:50:38.741Z,5.70
2018-07-25T02:53:07.450Z,5.60
2018-07-25T02:55:36.416Z,5.00
2018-07-25T02:58:04.611Z,5.23
2018-07-25T03:00:33.309Z,5.07
2018-07-25T03:03:02.091Z,5.10
2018-07-25T03:05:30.740Z,4.73
2018-07-25T03:07:59.325Z,4.40
2018-07-25T03:10:28.446Z,4.73
2018-07-25T03:12:56.839Z,4.67
2018-07-25T03:15:24.956Z,4.33
2018-07-25T03:17:53.378Z,4.20
2018-07-25T03:20:22.327Z,4.93
2018-07-25T03:22:50.746Z,4.13
2018-07-25T03:25:19.415Z,4.37
2018-07-25T03:27:47.864Z,4.37
2018-07-25T03:30:16.305Z,3.90
2018-07-25T03:32:44.829Z,3.93
2018-07-25T03:35:13.443Z,4.10
2018-07-25T03:37:41.959Z,3.80
2018-07-25T03:40:10.465Z,4.00
2018-07-25T03:42:38.968Z,4.00
2018-07-25T03:45:07.604Z,3.90
2018-07-25T03:47:36.580Z,4.20
2018-07-25T03:50:05.425Z,4.37
2018-07-25T03:52:34.152Z,4.00
2018-07-25T03:55:02.588Z,3.57
2018-07-25T03:57:31.172Z,3.67
2018-07-25T04:00:00.016Z,3.83
2018-07-25T04:02:28.457Z,4.00
2018-07-25T04:04:56.890Z,3.77
2018-07-25T04:07:25.337Z,3.80
2018-07-25T04:09:53.726Z,4.23
2018-07-25T04:12:22.338Z,3.60
2018-07-25T04:14:51.182Z,4.10
2018-07-25T04:17:19.573Z,4.17
2018-07-25T04:19:47.988Z,3.77
2018-07-25T04:22:16.510Z,4.03
2018-07-25T04:24:44.990Z,3.83
2018-07-25T04:27:13.381Z,3.70
2018-07-25T04:29:42.486Z,4.00
2018-07-25T04:32:11.242Z,3.80
2018-07-25T04:34:40.296Z,4.03
2018-07-25T04:37:08.644Z,3.40
2018-07-25T04:39:37.740Z,3.40
2018-07-25T04:42:06.389Z,3.63
2018-07-25T04:44:34.769Z,3.70
2018-07-25T04:47:03.343Z,3.73
2018-07-25T04:49:31.966Z,3.27
2018-07-25T04:52:00.541Z,3.67
2018-07-25T04:54:29.265Z,3.50
2018-07-25T04:56:57.674Z,3.60
2018-07-25T04:59:26.840Z,3.67
2018-07-25T05:01:55.639Z,3.83
2018-07-25T05:04:24.044Z,3.70
2018-07-25T05:06:52.440Z,3.83
2018-07-25T05:09:20.958Z,3.47
2018-07-25T05:11:49.334Z,3.60
2018-07-25T05:14:18.525Z,3.70
2018-07-25T05:16:47.805Z,3.90
2018-07-25T05:19:17.561Z,3.30
2018-07-25T05:21:45.939Z,3.23
2018-07-25T05:24:14.515Z,3.80
2018-07-25T05:26:43.135Z,3.47
2018-07-25T05:29:12.592Z,3.70
2018-07-25T05:31:40.756Z,3.67
2018-07-25T05:34:09.349Z,3.67
2018-07-25T05:36:37.794Z,3.40
2018-07-25T05:39:09.680Z,3.90
2018-07-25T05:41:38.526Z,4.13
2018-07-25T05:44:07.274Z,4.13
2018-07-25T05:46:35.684Z,3.70
2018-07-25T05:49:04.144Z,3.93
2018-07-25T05:51:32.848Z,4.20
2018-07-25T05:54:01.417Z,4.03
2018-07-25T05:56:30.210Z,4.10
2018-07-25T05:58:59.079Z,3.40
2018-07-25T06:01:27.607Z,3.40
2018-07-25T06:03:56.573Z,3.80
2018-07-25T06:06:25.041Z,3.80
2018-07-25T06:08:53.747Z,3.50
2018-07-25T06:11:22.260Z,4.10
2018-07-25T06:13:50.817Z,4.10
2018-07-25T06:16:19.340Z,3.40
2018-07-25T06:18:48.546Z,3.70
2018-07-25T06:21:17.137Z,4.03
2018-07-25T06:23:46.132Z,3.93
2018-07-25T06:26:14.798Z,4.03
2018-07-25T06:28:43.462Z,4.10
2018-07-25T06:31:11.882Z,4.83
2018-07-25T06:33:40.405Z,4.73
2018-07-25T06:36:08.529Z,3.93
2018-07-25T06:38:36.933Z,4.53
2018-07-25T06:41:05.860Z,5.00
2018-07-25T06:43:34.413Z,4.00
2018-07-25T06:46:02.847Z,4.10
2018-07-25T06:48:31.258Z,4.93
2018-07-25T06:50:59.731Z,4.60
2018-07-25T06:53:28.468Z,5.00
2018-07-25T06:55:57.206Z,4.60
2018-07-25T06:58:25.927Z,4.80
2018-07-25T07:00:54.365Z,4.60
2018-07-25T07:03:23.098Z,4.77
2018-07-25T07:05:51.557Z,4.43
2018-07-25T07:08:20.030Z,4.33
2018-07-25T07:10:49.133Z,5.10
2018-07-25T07:13:17.532Z,4.80
2018-07-25T07:16:19.413Z,4.27
2018-07-25T07:18:48.084Z,4.33
2018-07-25T07:21:26.119Z,4.50
2018-07-25T07:24:04.199Z,3.60
2018-07-25T07:30:07.294Z,3.97
2018-07-25T07:36:12.364Z,6.80
2018-07-25T07:38:41.817Z,9.93
2018-07-25T07:41:14.951Z,9.93
2018-07-25T07:43:44.002Z,11.27
2018-07-25T07:46:14.662Z,11.77
2018-07-25T07:51:31.797Z,12.07
2018-07-25T07:54:23.066Z,15.03
2018-07-25T07:56:52.900Z,14.67
2018-07-25T07:59:25.756Z,12.90
2018-07-25T08:01:54.685Z,9.53
2018-07-25T08:04:23.596Z,8.80
2018-07-25T08:07:06.848Z,7.03
2018-07-25T08:09:56.643Z,7.27
2018-07-25T08:12:37.012Z,6.47
2018-07-25T08:15:08.064Z,5.67
2018-07-25T08:17:36.733Z,5.37
2018-07-25T08:20:13.569Z,4.97
2018-07-25T08:22:42.007Z,5.37
2018-07-25T08:25:10.453Z,4.77
2018-07-25T08:27:39.116Z,4.80
2018-07-25T08:30:08.008Z,4.37
2018-07-25T08:32:36.798Z,4.53
2018-07-25T08:35:09.805Z,4.70
2018-07-25T08:37:38.231Z,5.03
2018-07-25T08:40:07.604Z,4.53
2018-07-25T08:42:36.365Z,5.63
2018-07-25T08:45:05.851Z,4.90
2018-07-25T08:47:34.325Z,5.20
2018-07-25T08:50:03.161Z,5.30
2018-07-25T08:52:31.430Z,5.03
2018-07-25T08:54:59.921Z,5.17
2018-07-25T08:57:28.387Z,5.37
2018-07-25T08:59:56.878Z,5.03
2018-07-25T09:02:26.551Z,5.40
2018-07-25T09:04:55.081Z,5.30
2018-07-25T09:07:23.746Z,5.50
2018-07-25T09:09:52.285Z,5.10
2018-07-25T09:12:20.722Z,5.93
2018-07-25T09:14:49.579Z,5.90
2018-07-25T09:17:18.131Z,5.60
2018-07-25T09:19:46.733Z,5.30
2018-07-25T09:22:15.479Z,5.10
2018-07-25T09:24:45.143Z,5.23
2018-07-25T09:27:13.771Z,4.80
2018-07-25T09:29:42.539Z,5.43
2018-07-25T09:32:11.219Z,5.60
2018-07-25T09:34:39.958Z,5.17
2018-07-25T09:37:08.830Z,4.50
2018-07-25T09:39:38.349Z,5.03
2018-07-25T09:42:06.872Z,4.87
2018-07-25T09:44:36.554Z,5.53
2018-07-25T09:47:05.475Z,5.07
2018-07-25T09:49:33.887Z,4.20
2018-07-25T09:52:03.181Z,4.73
2018-07-25T09:54:31.639Z,4.50
2018-07-25T09:57:00.509Z,4.47
2018-07-25T09:59:28.978Z,4.40
2018-07-25T10:01:57.400Z,4.47
2018-07-25T10:04:26.119Z,4.70
2018-07-25T10:06:54.739Z,4.60
2018-07-25T10:09:23.202Z,4.20
2018-07-25T10:11:51.621Z,4.80
2018-07-25T10:14:20.548Z,4.60
2018-07-25T10:16:49.059Z,4.40
2018-07-25T10:19:17.717Z,4.50
2018-07-25T10:21:46.993Z,4.27
2018-07-25T10:24:16.626Z,4.47
2018-07-25T10:26:45.563Z,4.03
2018-07-25T10:29:14.085Z,4.27
2018-07-25T10:31:42.640Z,4.23
2018-07-25T10:34:11.358Z,4.50
2018-07-25T10:36:39.691Z,4.40
2018-07-25T10:39:09.189Z,4.53
2018-07-25T10:41:37.864Z,4.20
2018-07-25T10:44:06.619Z,4.40
2018-07-25T10:46:34.901Z,4.10
2018-07-25T10:49:03.893Z,4.00
2018-07-25T10:51:32.916Z,4.00
2018-07-25T10:54:01.714Z,3.70
2018-07-25T10:56:30.322Z,3.90
2018-07-25T10:58:58.499Z,4.57
2018-07-25T11:01:27.076Z,4.13
2018-07-25T11:03:56.042Z,4.20
2018-07-25T11:06:24.728Z,4.30
2018-07-25T11:08:53.333Z,3.50
2018-07-25T11:11:22.034Z,4.30
2018-07-25T11:13:50.475Z,3.73
2018-07-25T11:16:19.846Z,3.70
2018-07-25T11:18:48.824Z,3.40
2018-07-25T11:21:17.459Z,3.30
2018-07-25T11:23:45.944Z,3.50
2018-07-25T11:26:14.503Z,3.30
2018-07-25T11:28:43.004Z,3.13
2018-07-25T11:31:11.605Z,3.13
2018-07-25T11:33:40.158Z,3.90
2018-07-25T11:36:08.616Z,2.90
2018-07-25T11:38:37.242Z,3.17
2018-07-25T11:41:06.448Z,2.60
2018-07-25T11:43:35.115Z,3.20
2018-07-25T11:46:03.897Z,2.57
2018-07-25T11:48:33.347Z,3.23
2018-07-25T11:51:01.981Z,3.10
2018-07-25T11:53:30.891Z,3.50
2018-07-25T11:55:59.533Z,3.13
2018-07-25T11:58:28.030Z,2.93
2018-07-25T12:00:57.388Z,3.13
2018-07-25T12:03:25.964Z,3.03
2018-07-25T12:05:54.422Z,2.83
2018-07-25T12:08:23.162Z,2.43
2018-07-25T12:10:51.896Z,2.77
2018-07-25T12:13:21.107Z,2.90
2018-07-25T12:15:49.701Z,2.97
2018-07-25T12:18:18.329Z,2.47
2018-07-25T12:20:55.637Z,3.10
2018-07-25T12:23:24.185Z,2.80
2018-07-25T12:25:52.870Z,3.00
2018-07-25T12:28:21.979Z,2.77
2018-07-25T12:30:51.349Z,2.60
2018-07-25T12:33:20.782Z,3.00
2018-07-25T12:35:49.296Z,2.93
2018-07-25T12:38:19.195Z,2.83
2018-07-25T12:40:49.854Z,3.00
2018-07-25T12:43:19.286Z,2.90
2018-07-25T12:45:49.823Z,2.90
2018-07-25T12:48:18.404Z,3.27
2018-07-25T12:50:47.187Z,3.60
2018-07-25T12:53:16.009Z,3.27
2018-07-25T12:55:44.929Z,3.10
2018-07-25T12:58:13.873Z,3.07
2018-07-25T13:00:42.821Z,3.40
2018-07-25T13:03:11.271Z,3.63
2018-07-25T13:05:39.814Z,3.50
2018-07-25T13:08:08.645Z,3.37
2018-07-25T13:10:39.315Z,3.63
2018-07-25T13:13:12.448Z,2.90
2018-07-25T13:15:43.114Z,3.07
2018-07-25T13:18:14.444Z,3.03
2018-07-25T13:20:44.999Z,2.90
2018-07-25T13:23:13.583Z,2.50
2018-07-25T13:25:42.313Z,3.00
2018-07-25T13:28:10.773Z,2.83
2018-07-25T13:30:39.285Z,2.23
2018-07-25T13:33:08.199Z,2.60
2018-07-25T13:35:36.839Z,2.77
2018-07-25T13:38:06.729Z,2.60
2018-07-25T13:40:37.885Z,2.43
2018-07-25T13:43:08.964Z,3.00
2018-07-25T13:45:40.062Z,2.50
2018-07-25T13:48:10.139Z,2.40
2018-07-25T13:50:38.732Z,2.13
2018-07-25T13:53:08.215Z,2.60
2018-07-25T13:58:49.372Z,2.20
2018-07-25T14:01:18.898Z,2.47
2018-07-25T14:03:50.200Z,2.67
2018-07-25T14:06:25.624Z,2.30
2018-07-25T14:09:01.408Z,2.40
2018-07-25T14:11:30.145Z,2.30
2018-07-25T14:13:59.005Z,2.77
2018-07-25T14:16:29.693Z,2.57
2018-07-25T14:19:12.013Z,2.30
2018-07-25T14:21:41.029Z,2.63
2018-07-25T14:24:09.851Z,3.10
2018-07-25T14:26:38.331Z,3.13
2018-07-25T14:29:06.941Z,3.00
2018-07-25T14:31:35.843Z,2.90
2018-07-25T14:34:04.084Z,3.00
2018-07-25T14:36:32.884Z,3.20
2018-07-25T14:39:01.522Z,3.30
2018-07-25T14:41:30.119Z,3.10
2018-07-25T14:44:00.419Z,2.77
2018-07-25T14:46:29.529Z,2.70
2018-07-25T14:48:58.128Z,3.47
2018-07-25T14:51:29.478Z,2.70
2018-07-25T14:53:59.876Z,2.93
2018-07-25T14:56:30.428Z,3.00
2018-07-25T14:58:59.979Z,3.53
2018-07-25T15:01:29.173Z,3.03
2018-07-25T15:03:57.741Z,2.80
2018-07-25T15:06:26.247Z,3.10
2018-07-25T15:08:55.028Z,2.97
2018-07-25T15:11:23.673Z,3.33
2018-07-25T15:13:52.353Z,3.07
2018-07-25T15:16:23.316Z,3.43
2018-07-25T15:18:51.854Z,3.20
2018-07-25T15:21:20.320Z,2.97
2018-07-25T15:23:59.319Z,2.97
2018-07-25T15:26:28.346Z,3.00
2018-07-25T15:29:00.283Z,3.37
2018-07-25T15:31:30.267Z,4.13
2018-07-25T15:33:59.709Z,4.00
2018-07-25T15:36:42.442Z,3.93
2018-07-25T15:39:27.141Z,3.53
2018-07-25T15:41:57.252Z,4.13
2018-07-25T15:44:26.871Z,3.83
2018-07-25T15:46:55.766Z,4.03
2018-07-25T15:49:25.650Z,3.97
2018-07-25T15:51:55.014Z,3.73
2018-07-25T15:54:24.871Z,3.70
2018-07-25T15:56:54.687Z,3.83
2018-07-25T15:59:23.802Z,4.30
2018-07-25T16:01:52.764Z,4.53
2018-07-25T16:04:21.480Z,4.10
2018-07-25T16:06:50.374Z,4.17
2018-07-25T16:09:19.028Z,3.93
2018-07-25T16:11:48.044Z,3.60
2018-07-25T16:14:16.833Z,3.90
2018-07-25T16:16:45.370Z,3.97
2018-07-25T16:19:13.571Z,3.83
2018-07-25T16:21:42.089Z,4.10
2018-07-25T16:24:12.212Z,3.60
2018-07-25T16:26:40.596Z,4.23
2018-07-25T16:29:09.796Z,4.27
2018-07-25T16:31:38.265Z,4.20
2018-07-25T16:34:06.916Z,4.37
2018-07-25T16:36:35.520Z,3.93
2018-07-25T16:39:06.262Z,4.50
2018-07-25T16:41:34.939Z,4.17
2018-07-25T16:44:03.541Z,4.10
2018-07-25T16:46:32.352Z,4.20
2018-07-25T16:49:00.640Z,4.10
2018-07-25T16:51:28.909Z,4.10
2018-07-25T16:53:57.278Z,4.30
2018-07-25T16:56:25.721Z,4.13
2018-07-25T16:58:54.191Z,4.03
2018-07-25T17:01:22.652Z,4.27
2018-07-25T17:03:51.090Z,4.30
2018-07-25T17:06:19.471Z,4.03
2018-07-25T17:08:47.868Z,4.67
2018-07-25T17:11:16.483Z,4.53
2018-07-25T17:13:45.080Z,4.00
2018-07-25T17:16:13.680Z,4.33
2018-07-25T17:18:42.312Z,3.90
2018-07-25T17:21:10.747Z,4.17
2018-07-25T17:23:39.154Z,3.97
2018-07-25T17:26:07.537Z,3.70
2018-07-25T17:28:36.728Z,4.40
2018-07-25T17:31:05.112Z,4.43
2018-07-25T17:33:34.221Z,4.17
2018-07-25T17:36:02.757Z,4.03
2018-07-25T17:38:31.653Z,4.03
2018-07-25T17:41:00.336Z,4.60
2018-07-25T17:43:29.462Z,4.10
2018-07-25T17:45:57.895Z,4.03
2018-07-25T17:48:26.815Z,4.03
2018-07-25T17:50:55.228Z,4.50
2018-07-25T17:53:23.423Z,3.80
2018-07-25T17:55:52.354Z,4.27
2018-07-25T17:58:20.752Z,4.63
2018-07-25T18:00:49.128Z,3.60
2018-07-25T18:03:17.528Z,3.47
2018-07-25T18:05:45.908Z,3.60
2018-07-25T18:08:14.400Z,3.80
2018-07-25T18:10:43.541Z,3.30
2018-07-25T18:13:17.470Z,3.63
2018-07-25T18:15:46.111Z,3.40
2018-07-25T18:18:14.464Z,3.43
2018-07-25T18:20:42.946Z,3.40
2018-07-25T18:23:11.359Z,3.33
2018-07-25T18:25:39.904Z,3.53
2018-07-25T18:28:08.356Z,3.50
2018-07-25T18:30:36.859Z,4.10
2018-07-25T18:33:05.309Z,3.53
2018-07-25T18:35:34.146Z,3.53
2018-07-25T18:38:02.770Z,3.80
2018-07-25T18:40:31.912Z,3.90
2018-07-25T18:43:01.595Z,4.07
2018-07-25T18:45:34.420Z,4.00
2018-07-25T18:48:03.260Z,4.00
2018-07-25T18:50:32.166Z,4.00
2018-07-25T18:53:00.764Z,4.00
2018-07-25T18:55:30.449Z,3.90
2018-07-25T18:57:59.012Z,3.87
2018-07-25T19:00:27.368Z,4.00
2018-07-25T19:02:56.294Z,3.73
2018-07-25T19:05:31.570Z,3.87
2018-07-25T19:08:01.819Z,4.13
2018-07-25T19:10:30.856Z,4.40
2018-07-25T19:12:59.595Z,4.30
2018-07-25T19:15:31.097Z,4.10
2018-07-25T19:18:00.647Z,3.90
2018-07-25T19:20:30.120Z,4.20
2018-07-25T19:22:59.238Z,4.17
2018-07-25T19:25:28.103Z,4.37
2018-07-25T19:27:57.191Z,3.80
2018-07-25T19:30:26.803Z,3.60
2018-07-25T19:32:56.615Z,3.63
2018-07-25T19:35:25.524Z,4.00
2018-07-25T19:37:54.777Z,4.23
2018-07-25T19:40:23.381Z,4.30
2018-07-25T19:42:51.934Z,4.47
2018-07-25T19:45:20.449Z,4.63
2018-07-25T19:47:48.877Z,3.97
2018-07-25T19:50:17.656Z,4.40
2018-07-25T19:52:46.316Z,4.43
2018-07-25T19:55:14.921Z,5.10
2018-07-25T19:57:43.420Z,4.23
2018-07-25T20:00:16.383Z,4.40
2018-07-25T20:02:41.588Z,4.30
2018-07-25T20:05:10.456Z,4.37
2018-07-25T20:07:39.204Z,4.70
2018-07-25T20:10:08.749Z,4.60
2018-07-25T20:12:37.607Z,4.27
2018-07-25T20:15:11.738Z,4.77
2018-07-25T20:17:40.197Z,4.93
2018-07-25T20:20:10.192Z,4.97
2018-07-25T20:22:39.168Z,5.10
2018-07-25T20:25:07.863Z,4.87
2018-07-25T20:27:36.632Z,4.77
2018-07-25T20:30:06.696Z,4.80
2018-07-25T20:32:35.232Z,4.63
2018-07-25T20:35:04.395Z,5.10
2018-07-25T20:37:32.951Z,5.50
2018-07-25T20:40:01.704Z,4.70
2018-07-25T20:42:30.187Z,4.30
2018-07-25T20:44:59.065Z,4.70
2018-07-25T20:47:27.534Z,5.20
2018-07-25T20:49:56.060Z,4.63
2018-07-25T20:52:24.413Z,4.37
2018-07-25T20:54:55.441Z,4.60
2018-07-25T20:57:24.659Z,4.30
2018-07-25T20:59:53.283Z,5.37
2018-07-25T21:02:21.719Z,4.50
2018-07-25T21:04:50.430Z,5.60
2018-07-25T21:07:19.083Z,4.60
2018-07-25T21:09:47.514Z,4.90
2018-07-25T21:12:15.972Z,4.47
2018-07-25T21:14:44.355Z,4.90
2018-07-25T21:17:12.752Z,4.57
2018-07-25T21:19:41.123Z,4.60
2018-07-25T21:22:09.501Z,4.30
2018-07-25T21:24:38.581Z,4.50
2018-07-25T21:27:06.968Z,4.27
2018-07-25T21:29:35.671Z,4.00
2018-07-25T21:32:04.448Z,4.13
2018-07-25T21:34:32.859Z,4.73
2018-07-25T21:37:01.219Z,4.17
2018-07-25T21:39:29.571Z,4.00
2018-07-25T21:41:58.240Z,4.10
2018-07-25T21:44:26.875Z,4.50
2018-07-25T21:46:56.200Z,4.40
2018-07-25T21:49:24.642Z,3.37
2018-07-25T21:51:53.236Z,3.97
2018-07-25T21:54:21.931Z,3.90
2018-07-25T21:56:51.131Z,4.23
2018-07-25T21:59:19.564Z,3.50
2018-07-25T22:01:47.963Z,3.77
2018-07-25T22:04:16.503Z,3.63
2018-07-25T22:06:45.036Z,3.73
2018-07-25T22:09:13.392Z,4.03
2018-07-25T22:11:41.883Z,3.47
2018-07-25T22:14:10.248Z,3.60
2018-07-25T22:16:38.713Z,3.87
2018-07-25T22:19:07.367Z,3.67
2018-07-25T22:21:35.767Z,3.80
2018-07-25T22:24:04.127Z,3.80
2018-07-25T22:26:32.635Z,3.83
2018-07-25T22:29:01.484Z,3.67
2018-07-25T22:31:29.841Z,3.53
2018-07-25T22:33:58.775Z,3.80
2018-07-25T22:36:27.286Z,3.77
2018-07-25T22:38:56.346Z,9.07
2018-07-25T22:41:24.469Z,346.87
2018-07-25T22:43:53.296Z,255.40
2018-07-25T22:46:22.590Z,222.47
2018-07-25T22:48:51.078Z,180.27
2018-07-25T22:51:19.480Z,286.67
2018-07-25T22:53:47.939Z,344.97
2018-07-25T22:56:16.472Z,201.63
2018-07-25T22:58:44.908Z,239.43
2018-07-25T23:01:13.288Z,192.13
2018-07-25T23:03:41.375Z,146.33
2018-07-25T23:06:09.828Z,114.30
2018-07-25T23:08:38.045Z,100.17
2018-07-25T23:11:07.237Z,74.07
2018-07-25T23:13:35.687Z,59.57
2018-07-25T23:16:04.060Z,46.87
2018-07-25T23:18:32.418Z,37.17
2018-07-25T23:21:01.413Z,32.37
2018-07-25T23:23:29.785Z,28.07
2018-07-25T23:25:58.188Z,23.07
2018-07-25T23:28:26.572Z,19.33
2018-07-25T23:30:54.653Z,17.87
2018-07-25T23:33:23.020Z,15.57
2018-07-25T23:35:51.438Z,13.50
2018-07-25T23:38:19.804Z,12.40
2018-07-25T23:40:48.371Z,10.80
2018-07-25T23:43:16.885Z,10.23
2018-07-25T23:45:45.263Z,9.90
2018-07-25T23:48:14.267Z,9.60
2018-07-25T23:50:43.343Z,9.30
2018-07-25T23:53:11.703Z,7.97
2018-07-25T23:55:40.240Z,7.47
2018-07-25T23:58:08.615Z,6.77
